sensor_id;sensor_type;location;lat;lon;timestamp;pressure;altitude;pressure_sealevel;temperature;humidity
48680;BME280;34475;51.658;5.634;2023-03-14T00:00:00;98720;;;11.9;100.0
48680;BME280;34475;51.658;5.634;2023-03-14T00:01:00;98720;;;11.9;100.0
48680;BME280;34475;51.658;5.634;2023-03-14T00:02:00;98730;;;11.7;100.0
48680;BME280;34475;51.658;5.634;2023-03-14T00:03:00;98730;;;11.7;100.0
48680;BME280;34475;51.658;5.634;2023-03-14T00:04:00;98730;;;11.6;100.0
48680;BME280;34475;51.658;5.634;2023-03-14T00:05:00;98730;;;11.6;100.0
48680;BME280;34475;51.658;5.634;2023-03-14T00:06:02;98730;;;11.7;100.0
48680;BME280;34475;51.658;5.634;2023-03-14T00:07:00;98730;;;11.7;100.0
48680;BME280;34475;51.658;5.634;2023-03-14T00:08:00;98720;;;11.7;100.0
48680;BME280;34475;51.658;5.634;2023-03-14T00:09:00;98720;;;11.7;100.0
48680;BME280;34475;51.658;5.634;2023-03-14T00:10:00;98720;;;11.6;100.0
48680;BME280;34475;51.658;5.634;2023-03-14T00:11:08;98720;;;11.6;100.0
48680;BME280;34475;51.658;5.634;2023-03-14T00:12:00;98730;;;11.6;100.0
48680;BME280;34475;51.658;5.634;2023-03-14T00:13:00;98730;;;11.6;100.0
48680;BME280;34475;51.658;5.634;2023-03-14T00:14:00;98730;;;11.5;100.0
48680;BME280;34475;51.658;5.634;2023-03-14T00:15:00;98730;;;11.5;100.0
48680;BME280;34475;51.658;5.634;2023-03-14T00:16:03;98720;;;11.4;100.0
48680;BME280;34475;51.658;5.634;2023-03-14T00:17:00;98720;;;11.4;100.0
48680;BME280;34475;51.658;5.634;2023-03-14T00:18:00;98730;;;11.5;100.0
48680;BME280;34475;51.658;5.634;2023-03-14T00:19:00;98730;;;11.5;100.0
48680;BME280;34475;51.658;5.634;2023-03-14T00:20:00;98720;;;11.4;100.0
48680;BME280;34475;51.658;5.634;2023-03-14T00:21:00;98720;;;11.4;100.0
48680;BME280;34475;51.658;5.634;2023-03-14T00:22:00;98720;;;11.4;100.0
48680;BME280;34475;51.658;5.634;2023-03-14T00:23:00;98720;;;11.4;100.0
48680;BME280;34475;51.658;5.634;2023-03-14T00:24:00;98710;;;11.4;100.0
48680;BME280;34475;51.658;5.634;2023-03-14T00:25:00;98710;;;11.4;100.0
48680;BME280;34475;51.658;5.634;2023-03-14T00:26:02;98720;;;11.3;100.0
48680;BME280;34475;51.658;5.634;2023-03-14T00:27:00;98720;;;11.3;100.0
48680;BME280;34475;51.658;5.634;2023-03-14T00:28:00;98720;;;11.2;100.0
48680;BME280;34475;51.658;5.634;2023-03-14T00:29:00;98720;;;11.2;100.0
48680;BME280;34475;51.658;5.634;2023-03-14T00:30:00;98730;;;11.1;100.0
48680;BME280;34475;51.658;5.634;2023-03-14T00:31:02;98730;;;11.1;100.0
48680;BME280;34475;51.658;5.634;2023-03-14T00:32:00;98720;;;11.0;100.0
48680;BME280;34475;51.658;5.634;2023-03-14T00:33:00;98720;;;11.0;100.0
48680;BME280;34475;51.658;5.634;2023-03-14T00:34:00;98730;;;11.1;100.0
48680;BME280;34475;51.658;5.634;2023-03-14T00:35:00;98730;;;11.1;100.0
48680;BME280;34475;51.658;5.634;2023-03-14T00:36:01;98730;;;11.0;100.0
48680;BME280;34475;51.658;5.634;2023-03-14T00:37:00;98730;;;11.0;100.0
48680;BME280;34475;51.658;5.634;2023-03-14T00:38:00;98730;;;10.9;100.0
48680;BME280;34475;51.658;5.634;2023-03-14T00:39:00;98730;;;10.9;100.0
48680;BME280;34475;51.658;5.634;2023-03-14T00:40:00;98740;;;11.0;100.0
48680;BME280;34475;51.658;5.634;2023-03-14T00:41:02;98740;;;11.0;100.0
48680;BME280;34475;51.658;5.634;2023-03-14T00:42:00;98740;;;10.9;100.0
48680;BME280;34475;51.658;5.634;2023-03-14T00:43:00;98740;;;10.9;100.0
48680;BME280;34475;51.658;5.634;2023-03-14T00:44:00;98740;;;11.0;100.0
48680;BME280;34475;51.658;5.634;2023-03-14T00:45:00;98740;;;11.0;100.0
48680;BME280;34475;51.658;5.634;2023-03-14T00:46:00;98740;;;11.1;100.0
48680;BME280;34475;51.658;5.634;2023-03-14T00:47:00;98740;;;11.1;100.0
48680;BME280;34475;51.658;5.634;2023-03-14T00:48:00;98740;;;11.0;100.0
48680;BME280;34475;51.658;5.634;2023-03-14T00:49:00;98740;;;11.0;100.0
48680;BME280;34475;51.658;5.634;2023-03-14T00:50:00;98740;;;11.0;100.0
48680;BME280;34475;51.658;5.634;2023-03-14T00:51:00;98740;;;11.0;100.0
48680;BME280;34475;51.658;5.634;2023-03-14T00:52:00;98750;;;10.9;100.0
48680;BME280;34475;51.658;5.634;2023-03-14T00:53:00;98750;;;10.9;100.0
48680;BME280;34475;51.658;5.634;2023-03-14T00:54:00;98750;;;10.9;100.0
48680;BME280;34475;51.658;5.634;2023-03-14T00:55:00;98750;;;10.9;100.0
48680;BME280;34475;51.658;5.634;2023-03-14T00:56:02;98750;;;10.9;100.0
48680;BME280;34475;51.658;5.634;2023-03-14T00:57:00;98750;;;10.9;100.0
48680;BME280;34475;51.658;5.634;2023-03-14T00:58:00;98750;;;10.9;100.0
48680;BME280;34475;51.658;5.634;2023-03-14T00:59:00;98750;;;10.9;100.0
48680;BME280;34475;51.658;5.634;2023-03-14T01:00:00;98750;;;10.9;100.0
48680;BME280;34475;51.658;5.634;2023-03-14T01:01:04;98750;;;10.9;100.0
48680;BME280;34475;51.658;5.634;2023-03-14T01:02:00;98740;;;10.8;100.0
48680;BME280;34475;51.658;5.634;2023-03-14T01:03:00;98740;;;10.8;100.0
48680;BME280;34475;51.658;5.634;2023-03-14T01:04:00;98740;;;10.8;100.0
48680;BME280;34475;51.658;5.634;2023-03-14T01:05:00;98740;;;10.8;100.0
48680;BME280;34475;51.658;5.634;2023-03-14T01:06:08;98740;;;10.7;100.0
48680;BME280;34475;51.658;5.634;2023-03-14T01:07:00;98740;;;10.7;100.0
48680;BME280;34475;51.658;5.634;2023-03-14T01:08:00;98740;;;10.9;100.0
48680;BME280;34475;51.658;5.634;2023-03-14T01:09:00;98740;;;10.9;100.0
48680;BME280;34475;51.658;5.634;2023-03-14T01:10:00;98740;;;10.9;100.0
48680;BME280;34475;51.658;5.634;2023-03-14T01:11:04;98740;;;10.9;100.0
48680;BME280;34475;51.658;5.634;2023-03-14T01:12:00;98740;;;10.9;100.0
48680;BME280;34475;51.658;5.634;2023-03-14T01:13:00;98740;;;10.9;100.0
48680;BME280;34475;51.658;5.634;2023-03-14T01:14:00;98740;;;10.9;100.0
48680;BME280;34475;51.658;5.634;2023-03-14T01:15:00;98740;;;10.9;100.0
48680;BME280;34475;51.658;5.634;2023-03-14T01:16:02;98740;;;10.9;100.0
48680;BME280;34475;51.658;5.634;2023-03-14T01:17:00;98740;;;10.9;100.0
48680;BME280;34475;51.658;5.634;2023-03-14T01:18:00;98740;;;10.9;100.0
48680;BME280;34475;51.658;5.634;2023-03-14T01:19:00;98740;;;10.9;100.0
48680;BME280;34475;51.658;5.634;2023-03-14T01:20:00;98740;;;10.8;100.0
48680;BME280;34475;51.658;5.634;2023-03-14T01:21:00;98740;;;10.8;100.0
48680;BME280;34475;51.658;5.634;2023-03-14T01:22:00;98730;;;10.8;100.0
48680;BME280;34475;51.658;5.634;2023-03-14T01:23:00;98730;;;10.8;100.0
48680;BME280;34475;51.658;5.634;2023-03-14T01:24:01;98730;;;10.8;100.0
48680;BME280;34475;51.658;5.634;2023-03-14T01:25:00;98730;;;10.8;100.0
48680;BME280;34475;51.658;5.634;2023-03-14T01:26:00;98730;;;10.8;100.0
48680;BME280;34475;51.658;5.634;2023-03-14T01:27:00;98730;;;10.8;100.0
48680;BME280;34475;51.658;5.634;2023-03-14T01:28:00;98740;;;10.8;100.0
48680;BME280;34475;51.658;5.634;2023-03-14T01:29:00;98740;;;10.8;100.0
48680;BME280;34475;51.658;5.634;2023-03-14T01:30:00;98730;;;10.8;100.0
48680;BME280;34475;51.658;5.634;2023-03-14T01:31:03;98730;;;10.8;100.0
48680;BME280;34475;51.658;5.634;2023-03-14T01:32:00;98730;;;10.8;100.0
48680;BME280;34475;51.658;5.634;2023-03-14T01:33:00;98730;;;10.8;100.0
48680;BME280;34475;51.658;5.634;2023-03-14T01:34:00;98720;;;10.8;100.0
48680;BME280;34475;51.658;5.634;2023-03-14T01:35:00;98720;;;10.8;100.0
48680;BME280;34475;51.658;5.634;2023-03-14T01:36:00;98730;;;10.9;100.0
48680;BME280;34475;51.658;5.634;2023-03-14T01:37:00;98730;;;10.9;100.0
48680;BME280;34475;51.658;5.634;2023-03-14T01:38:00;98730;;;10.8;100.0
48680;BME280;34475;51.658;5.634;2023-03-14T01:39:00;98730;;;10.8;100.0
48680;BME280;34475;51.658;5.634;2023-03-14T01:40:00;98720;;;10.8;100.0
48680;BME280;34475;51.658;5.634;2023-03-14T01:41:00;98720;;;10.8;100.0
48680;BME280;34475;51.658;5.634;2023-03-14T01:42:00;98720;;;10.8;100.0
48680;BME280;34475;51.658;5.634;2023-03-14T01:43:06;98720;;;10.8;100.0
48680;BME280;34475;51.658;5.634;2023-03-14T01:44:00;98710;;;10.8;100.0
48680;BME280;34475;51.658;5.634;2023-03-14T01:45:00;98710;;;10.8;100.0
48680;BME280;34475;51.658;5.634;2023-03-14T01:47:00;98710;;;10.8;100.0
48680;BME280;34475;51.658;5.634;2023-03-14T01:48:00;98710;;;10.8;100.0
48680;BME280;34475;51.658;5.634;2023-03-14T01:50:02;98700;;;10.8;100.0
48680;BME280;34475;51.658;5.634;2023-03-14T01:51:00;98700;;;10.8;100.0
48680;BME280;34475;51.658;5.634;2023-03-14T01:53:00;98700;;;10.8;100.0
48680;BME280;34475;51.658;5.634;2023-03-14T01:54:09;98710;;;10.8;100.0
48680;BME280;34475;51.658;5.634;2023-03-14T01:55:04;98710;;;10.8;100.0
48680;BME280;34475;51.658;5.634;2023-03-14T01:56:00;98700;;;10.8;100.0
48680;BME280;34475;51.658;5.634;2023-03-14T01:57:03;98700;;;10.8;100.0
48680;BME280;34475;51.658;5.634;2023-03-14T01:58:01;98690;;;10.8;100.0
48680;BME280;34475;51.658;5.634;2023-03-14T01:59:00;98690;;;10.8;100.0
48680;BME280;34475;51.658;5.634;2023-03-14T02:00:03;98690;;;10.8;100.0
48680;BME280;34475;51.658;5.634;2023-03-14T02:01:00;98690;;;10.8;100.0
48680;BME280;34475;51.658;5.634;2023-03-14T02:02:00;98690;;;10.8;100.0
48680;BME280;34475;51.658;5.634;2023-03-14T02:03:05;98690;;;10.8;100.0
48680;BME280;34475;51.658;5.634;2023-03-14T02:04:01;98690;;;10.7;100.0
48680;BME280;34475;51.658;5.634;2023-03-14T02:05:00;98690;;;10.7;100.0
48680;BME280;34475;51.658;5.634;2023-03-14T02:06:00;98690;;;10.8;100.0
48680;BME280;34475;51.658;5.634;2023-03-14T02:07:02;98690;;;10.8;100.0
48680;BME280;34475;51.658;5.634;2023-03-14T02:08:00;98680;;;10.6;100.0
48680;BME280;34475;51.658;5.634;2023-03-14T02:09:00;98680;;;10.6;100.0
48680;BME280;34475;51.658;5.634;2023-03-14T02:10:00;98690;;;10.5;100.0
48680;BME280;34475;51.658;5.634;2023-03-14T02:11:00;98690;;;10.5;100.0
48680;BME280;34475;51.658;5.634;2023-03-14T02:12:00;98700;;;10.7;100.0
48680;BME280;34475;51.658;5.634;2023-03-14T02:13:00;98700;;;10.7;100.0
48680;BME280;34475;51.658;5.634;2023-03-14T02:14:00;98690;;;10.6;100.0
48680;BME280;34475;51.658;5.634;2023-03-14T02:15:00;98690;;;10.6;100.0
48680;BME280;34475;51.658;5.634;2023-03-14T02:16:00;98700;;;10.6;100.0
48680;BME280;34475;51.658;5.634;2023-03-14T02:17:00;98700;;;10.6;100.0
48680;BME280;34475;51.658;5.634;2023-03-14T02:18:00;98690;;;10.7;100.0
48680;BME280;34475;51.658;5.634;2023-03-14T02:19:00;98690;;;10.7;100.0
48680;BME280;34475;51.658;5.634;2023-03-14T02:21:01;98690;;;10.6;100.0
48680;BME280;34475;51.658;5.634;2023-03-14T02:23:00;98690;;;10.7;100.0
48680;BME280;34475;51.658;5.634;2023-03-14T02:24:17;98690;;;10.7;100.0
48680;BME280;34475;51.658;5.634;2023-03-14T02:25:08;98690;;;10.7;100.0
48680;BME280;34475;51.658;5.634;2023-03-14T02:26:02;98690;;;10.8;100.0
48680;BME280;34475;51.658;5.634;2023-03-14T02:28:00;98690;;;10.7;100.0
48680;BME280;34475;51.658;5.634;2023-03-14T02:29:00;98690;;;10.7;100.0
48680;BME280;34475;51.658;5.634;2023-03-14T02:30:01;98700;;;10.6;100.0
48680;BME280;34475;51.658;5.634;2023-03-14T02:31:00;98700;;;10.6;100.0
48680;BME280;34475;51.658;5.634;2023-03-14T02:32:00;98700;;;10.6;100.0
48680;BME280;34475;51.658;5.634;2023-03-14T02:33:03;98700;;;10.6;100.0
48680;BME280;34475;51.658;5.634;2023-03-14T02:34:00;98690;;;10.5;100.0
48680;BME280;34475;51.658;5.634;2023-03-14T02:35:00;98690;;;10.5;100.0
48680;BME280;34475;51.658;5.634;2023-03-14T02:36:01;98690;;;10.5;100.0
48680;BME280;34475;51.658;5.634;2023-03-14T02:37:00;98690;;;10.5;100.0
48680;BME280;34475;51.658;5.634;2023-03-14T02:38:05;98690;;;10.6;100.0
48680;BME280;34475;51.658;5.634;2023-03-14T02:39:05;98690;;;10.6;100.0
48680;BME280;34475;51.658;5.634;2023-03-14T02:40:00;98690;;;10.7;100.0
48680;BME280;34475;51.658;5.634;2023-03-14T02:41:00;98690;;;10.7;100.0
48680;BME280;34475;51.658;5.634;2023-03-14T02:42:00;98690;;;10.7;100.0
48680;BME280;34475;51.658;5.634;2023-03-14T02:43:00;98690;;;10.7;100.0
48680;BME280;34475;51.658;5.634;2023-03-14T02:44:00;98680;;;10.6;100.0
48680;BME280;34475;51.658;5.634;2023-03-14T02:45:25;98680;;;10.6;100.0
48680;BME280;34475;51.658;5.634;2023-03-14T02:46:00;98680;;;10.6;100.0
48680;BME280;34475;51.658;5.634;2023-03-14T02:47:00;98680;;;10.6;100.0
48680;BME280;34475;51.658;5.634;2023-03-14T02:48:01;98700;;;10.6;100.0
48680;BME280;34475;51.658;5.634;2023-03-14T02:49:02;98700;;;10.6;100.0
48680;BME280;34475;51.658;5.634;2023-03-14T02:50:02;98680;;;10.5;100.0
48680;BME280;34475;51.658;5.634;2023-03-14T02:51:00;98680;;;10.5;100.0
48680;BME280;34475;51.658;5.634;2023-03-14T02:52:00;98690;;;10.5;100.0
48680;BME280;34475;51.658;5.634;2023-03-14T02:53:00;98690;;;10.5;100.0
48680;BME280;34475;51.658;5.634;2023-03-14T02:54:00;98690;;;10.6;100.0
48680;BME280;34475;51.658;5.634;2023-03-14T02:55:00;98690;;;10.6;100.0
48680;BME280;34475;51.658;5.634;2023-03-14T02:56:00;98680;;;10.6;100.0
48680;BME280;34475;51.658;5.634;2023-03-14T02:57:00;98680;;;10.6;100.0
48680;BME280;34475;51.658;5.634;2023-03-14T02:58:00;98690;;;10.6;100.0
48680;BME280;34475;51.658;5.634;2023-03-14T02:59:02;98690;;;10.6;100.0
48680;BME280;34475;51.658;5.634;2023-03-14T03:00:00;98680;;;10.6;100.0
48680;BME280;34475;51.658;5.634;2023-03-14T03:01:00;98680;;;10.6;100.0
48680;BME280;34475;51.658;5.634;2023-03-14T03:02:00;98680;;;10.6;100.0
48680;BME280;34475;51.658;5.634;2023-03-14T03:03:00;98680;;;10.6;100.0
48680;BME280;34475;51.658;5.634;2023-03-14T03:04:00;98680;;;10.7;100.0
48680;BME280;34475;51.658;5.634;2023-03-14T03:05:00;98680;;;10.7;100.0
48680;BME280;34475;51.658;5.634;2023-03-14T03:06:00;98670;;;10.7;100.0
48680;BME280;34475;51.658;5.634;2023-03-14T03:07:00;98670;;;10.7;100.0
48680;BME280;34475;51.658;5.634;2023-03-14T03:08:00;98670;;;10.7;100.0
48680;BME280;34475;51.658;5.634;2023-03-14T03:09:00;98670;;;10.7;100.0
48680;BME280;34475;51.658;5.634;2023-03-14T03:10:00;98680;;;10.7;100.0
48680;BME280;34475;51.658;5.634;2023-03-14T03:11:00;98680;;;10.7;100.0
48680;BME280;34475;51.658;5.634;2023-03-14T03:12:00;98670;;;10.7;100.0
48680;BME280;34475;51.658;5.634;2023-03-14T03:13:00;98670;;;10.7;100.0
48680;BME280;34475;51.658;5.634;2023-03-14T03:14:00;98680;;;10.7;100.0
48680;BME280;34475;51.658;5.634;2023-03-14T03:15:00;98680;;;10.7;100.0
48680;BME280;34475;51.658;5.634;2023-03-14T03:16:00;98670;;;10.7;100.0
48680;BME280;34475;51.658;5.634;2023-03-14T03:17:00;98670;;;10.7;100.0
48680;BME280;34475;51.658;5.634;2023-03-14T03:18:00;98670;;;10.6;100.0
48680;BME280;34475;51.658;5.634;2023-03-14T03:19:00;98670;;;10.6;100.0
48680;BME280;34475;51.658;5.634;2023-03-14T03:20:00;98680;;;10.7;100.0
48680;BME280;34475;51.658;5.634;2023-03-14T03:21:01;98680;;;10.7;100.0
48680;BME280;34475;51.658;5.634;2023-03-14T03:22:00;98680;;;10.6;100.0
48680;BME280;34475;51.658;5.634;2023-03-14T03:23:00;98680;;;10.6;100.0
48680;BME280;34475;51.658;5.634;2023-03-14T03:24:00;98680;;;10.7;100.0
48680;BME280;34475;51.658;5.634;2023-03-14T03:25:00;98680;;;10.7;100.0
48680;BME280;34475;51.658;5.634;2023-03-14T03:26:00;98680;;;10.7;100.0
48680;BME280;34475;51.658;5.634;2023-03-14T03:27:00;98680;;;10.7;100.0
48680;BME280;34475;51.658;5.634;2023-03-14T03:28:00;98680;;;10.7;100.0
48680;BME280;34475;51.658;5.634;2023-03-14T03:29:00;98680;;;10.7;100.0
48680;BME280;34475;51.658;5.634;2023-03-14T03:30:00;98670;;;10.6;100.0
48680;BME280;34475;51.658;5.634;2023-03-14T03:31:05;98670;;;10.6;100.0
48680;BME280;34475;51.658;5.634;2023-03-14T03:32:00;98660;;;10.6;100.0
48680;BME280;34475;51.658;5.634;2023-03-14T03:33:00;98660;;;10.6;100.0
48680;BME280;34475;51.658;5.634;2023-03-14T03:34:00;98670;;;10.6;100.0
48680;BME280;34475;51.658;5.634;2023-03-14T03:35:00;98670;;;10.6;100.0
48680;BME280;34475;51.658;5.634;2023-03-14T03:36:00;98670;;;10.6;100.0
48680;BME280;34475;51.658;5.634;2023-03-14T03:37:00;98670;;;10.6;100.0
48680;BME280;34475;51.658;5.634;2023-03-14T03:38:00;98670;;;10.7;100.0
48680;BME280;34475;51.658;5.634;2023-03-14T03:39:00;98670;;;10.7;100.0
48680;BME280;34475;51.658;5.634;2023-03-14T03:40:00;98670;;;10.7;100.0
48680;BME280;34475;51.658;5.634;2023-03-14T03:41:02;98670;;;10.7;100.0
48680;BME280;34475;51.658;5.634;2023-03-14T03:42:00;98670;;;10.6;100.0
48680;BME280;34475;51.658;5.634;2023-03-14T03:43:00;98670;;;10.6;100.0
48680;BME280;34475;51.658;5.634;2023-03-14T03:44:00;98670;;;10.6;100.0
48680;BME280;34475;51.658;5.634;2023-03-14T03:45:00;98670;;;10.6;100.0
48680;BME280;34475;51.658;5.634;2023-03-14T03:46:07;98670;;;10.7;100.0
48680;BME280;34475;51.658;5.634;2023-03-14T03:47:00;98670;;;10.7;100.0
48680;BME280;34475;51.658;5.634;2023-03-14T03:48:00;98660;;;10.7;100.0
48680;BME280;34475;51.658;5.634;2023-03-14T03:49:00;98660;;;10.7;100.0
48680;BME280;34475;51.658;5.634;2023-03-14T03:50:00;98660;;;10.7;100.0
48680;BME280;34475;51.658;5.634;2023-03-14T03:51:00;98660;;;10.7;100.0
48680;BME280;34475;51.658;5.634;2023-03-14T03:52:00;98660;;;10.7;100.0
48680;BME280;34475;51.658;5.634;2023-03-14T03:53:00;98660;;;10.7;100.0
48680;BME280;34475;51.658;5.634;2023-03-14T03:54:00;98660;;;10.8;100.0
48680;BME280;34475;51.658;5.634;2023-03-14T03:55:00;98660;;;10.8;100.0
48680;BME280;34475;51.658;5.634;2023-03-14T03:56:00;98650;;;10.6;100.0
48680;BME280;34475;51.658;5.634;2023-03-14T03:57:00;98650;;;10.6;100.0
48680;BME280;34475;51.658;5.634;2023-03-14T03:58:00;98650;;;10.6;100.0
48680;BME280;34475;51.658;5.634;2023-03-14T03:59:00;98650;;;10.6;100.0
48680;BME280;34475;51.658;5.634;2023-03-14T04:00:00;98660;;;10.6;100.0
48680;BME280;34475;51.658;5.634;2023-03-14T04:01:00;98660;;;10.6;100.0
48680;BME280;34475;51.658;5.634;2023-03-14T04:02:00;98650;;;10.6;100.0
48680;BME280;34475;51.658;5.634;2023-03-14T04:03:00;98650;;;10.6;100.0
48680;BME280;34475;51.658;5.634;2023-03-14T04:04:00;98650;;;10.6;100.0
48680;BME280;34475;51.658;5.634;2023-03-14T04:05:00;98650;;;10.6;100.0
48680;BME280;34475;51.658;5.634;2023-03-14T04:06:00;98650;;;10.6;100.0
48680;BME280;34475;51.658;5.634;2023-03-14T04:07:00;98650;;;10.6;100.0
48680;BME280;34475;51.658;5.634;2023-03-14T04:08:00;98650;;;10.7;100.0
48680;BME280;34475;51.658;5.634;2023-03-14T04:09:00;98650;;;10.7;100.0
48680;BME280;34475;51.658;5.634;2023-03-14T04:10:00;98650;;;10.6;100.0
48680;BME280;34475;51.658;5.634;2023-03-14T04:11:00;98650;;;10.6;100.0
48680;BME280;34475;51.658;5.634;2023-03-14T04:12:00;98650;;;10.7;100.0
48680;BME280;34475;51.658;5.634;2023-03-14T04:13:00;98650;;;10.7;100.0
48680;BME280;34475;51.658;5.634;2023-03-14T04:14:00;98640;;;10.7;100.0
48680;BME280;34475;51.658;5.634;2023-03-14T04:15:00;98640;;;10.7;100.0
48680;BME280;34475;51.658;5.634;2023-03-14T04:16:00;98650;;;10.6;100.0
48680;BME280;34475;51.658;5.634;2023-03-14T04:17:00;98650;;;10.6;100.0
48680;BME280;34475;51.658;5.634;2023-03-14T04:18:00;98650;;;10.6;100.0
48680;BME280;34475;51.658;5.634;2023-03-14T04:19:00;98650;;;10.6;100.0
48680;BME280;34475;51.658;5.634;2023-03-14T04:20:00;98650;;;10.6;100.0
48680;BME280;34475;51.658;5.634;2023-03-14T04:21:00;98650;;;10.6;100.0
48680;BME280;34475;51.658;5.634;2023-03-14T04:22:00;98650;;;10.6;100.0
48680;BME280;34475;51.658;5.634;2023-03-14T04:23:00;98650;;;10.6;100.0
48680;BME280;34475;51.658;5.634;2023-03-14T04:24:00;98650;;;10.6;100.0
48680;BME280;34475;51.658;5.634;2023-03-14T04:25:00;98650;;;10.6;100.0
48680;BME280;34475;51.658;5.634;2023-03-14T04:26:00;98640;;;10.5;100.0
48680;BME280;34475;51.658;5.634;2023-03-14T04:27:00;98640;;;10.5;100.0
48680;BME280;34475;51.658;5.634;2023-03-14T04:28:00;98640;;;10.5;100.0
48680;BME280;34475;51.658;5.634;2023-03-14T04:29:00;98640;;;10.5;100.0
48680;BME280;34475;51.658;5.634;2023-03-14T04:30:00;98640;;;10.5;100.0
48680;BME280;34475;51.658;5.634;2023-03-14T04:31:05;98640;;;10.5;100.0
48680;BME280;34475;51.658;5.634;2023-03-14T04:32:00;98640;;;10.4;100.0
48680;BME280;34475;51.658;5.634;2023-03-14T04:33:00;98640;;;10.4;100.0
48680;BME280;34475;51.658;5.634;2023-03-14T04:34:00;98650;;;10.5;100.0
48680;BME280;34475;51.658;5.634;2023-03-14T04:35:00;98650;;;10.5;100.0
48680;BME280;34475;51.658;5.634;2023-03-14T04:36:00;98640;;;10.5;100.0
48680;BME280;34475;51.658;5.634;2023-03-14T04:37:00;98640;;;10.5;100.0
48680;BME280;34475;51.658;5.634;2023-03-14T04:38:00;98650;;;10.5;100.0
48680;BME280;34475;51.658;5.634;2023-03-14T04:39:01;98650;;;10.5;100.0
48680;BME280;34475;51.658;5.634;2023-03-14T04:40:00;98640;;;10.5;100.0
48680;BME280;34475;51.658;5.634;2023-03-14T04:41:00;98640;;;10.5;100.0
48680;BME280;34475;51.658;5.634;2023-03-14T04:42:00;98640;;;10.5;100.0
48680;BME280;34475;51.658;5.634;2023-03-14T04:43:00;98640;;;10.5;100.0
48680;BME280;34475;51.658;5.634;2023-03-14T04:44:00;98640;;;10.5;100.0
48680;BME280;34475;51.658;5.634;2023-03-14T04:45:00;98640;;;10.5;100.0
48680;BME280;34475;51.658;5.634;2023-03-14T04:46:00;98640;;;10.4;100.0
48680;BME280;34475;51.658;5.634;2023-03-14T04:47:00;98640;;;10.4;100.0
48680;BME280;34475;51.658;5.634;2023-03-14T04:48:00;98640;;;10.4;100.0
48680;BME280;34475;51.658;5.634;2023-03-14T04:49:00;98640;;;10.4;100.0
48680;BME280;34475;51.658;5.634;2023-03-14T04:50:00;98640;;;10.4;100.0
48680;BME280;34475;51.658;5.634;2023-03-14T04:51:00;98640;;;10.4;100.0
48680;BME280;34475;51.658;5.634;2023-03-14T04:52:00;98630;;;10.4;100.0
48680;BME280;34475;51.658;5.634;2023-03-14T04:53:00;98630;;;10.4;100.0
48680;BME280;34475;51.658;5.634;2023-03-14T04:54:00;98630;;;10.4;100.0
48680;BME280;34475;51.658;5.634;2023-03-14T04:55:00;98630;;;10.4;100.0
48680;BME280;34475;51.658;5.634;2023-03-14T04:56:00;98630;;;10.5;100.0
48680;BME280;34475;51.658;5.634;2023-03-14T04:57:00;98630;;;10.5;100.0
48680;BME280;34475;51.658;5.634;2023-03-14T04:58:00;98630;;;10.3;100.0
48680;BME280;34475;51.658;5.634;2023-03-14T04:59:00;98630;;;10.3;100.0
48680;BME280;34475;51.658;5.634;2023-03-14T05:00:00;98630;;;10.4;100.0
48680;BME280;34475;51.658;5.634;2023-03-14T05:01:01;98630;;;10.4;100.0
48680;BME280;34475;51.658;5.634;2023-03-14T05:02:00;98630;;;10.4;100.0
48680;BME280;34475;51.658;5.634;2023-03-14T05:03:00;98630;;;10.4;100.0
48680;BME280;34475;51.658;5.634;2023-03-14T05:04:00;98630;;;10.3;100.0
48680;BME280;34475;51.658;5.634;2023-03-14T05:05:00;98630;;;10.3;100.0
48680;BME280;34475;51.658;5.634;2023-03-14T05:06:00;98630;;;10.3;100.0
48680;BME280;34475;51.658;5.634;2023-03-14T05:07:00;98630;;;10.3;100.0
48680;BME280;34475;51.658;5.634;2023-03-14T05:08:00;98640;;;10.2;100.0
48680;BME280;34475;51.658;5.634;2023-03-14T05:09:00;98640;;;10.2;100.0
48680;BME280;34475;51.658;5.634;2023-03-14T05:10:00;98640;;;10.3;100.0
48680;BME280;34475;51.658;5.634;2023-03-14T05:11:00;98640;;;10.3;100.0
48680;BME280;34475;51.658;5.634;2023-03-14T05:12:00;98640;;;10.3;100.0
48680;BME280;34475;51.658;5.634;2023-03-14T05:13:00;98640;;;10.3;100.0
48680;BME280;34475;51.658;5.634;2023-03-14T05:14:00;98640;;;10.2;100.0
48680;BME280;34475;51.658;5.634;2023-03-14T05:15:00;98640;;;10.2;100.0
48680;BME280;34475;51.658;5.634;2023-03-14T05:16:07;98640;;;10.3;100.0
48680;BME280;34475;51.658;5.634;2023-03-14T05:17:00;98640;;;10.3;100.0
48680;BME280;34475;51.658;5.634;2023-03-14T05:18:00;98640;;;10.3;100.0
48680;BME280;34475;51.658;5.634;2023-03-14T05:19:00;98640;;;10.3;100.0
48680;BME280;34475;51.658;5.634;2023-03-14T05:20:00;98640;;;10.2;100.0
48680;BME280;34475;51.658;5.634;2023-03-14T05:21:00;98640;;;10.2;100.0
48680;BME280;34475;51.658;5.634;2023-03-14T05:22:00;98630;;;10.1;100.0
48680;BME280;34475;51.658;5.634;2023-03-14T05:23:00;98630;;;10.1;100.0
48680;BME280;34475;51.658;5.634;2023-03-14T05:24:00;98630;;;10.2;100.0
48680;BME280;34475;51.658;5.634;2023-03-14T05:25:00;98630;;;10.2;100.0
48680;BME280;34475;51.658;5.634;2023-03-14T05:26:00;98630;;;10.1;100.0
48680;BME280;34475;51.658;5.634;2023-03-14T05:27:00;98630;;;10.1;100.0
48680;BME280;34475;51.658;5.634;2023-03-14T05:28:00;98630;;;10.1;100.0
48680;BME280;34475;51.658;5.634;2023-03-14T05:29:00;98630;;;10.1;100.0
48680;BME280;34475;51.658;5.634;2023-03-14T05:30:00;98630;;;10.2;100.0
48680;BME280;34475;51.658;5.634;2023-03-14T05:31:00;98630;;;10.2;100.0
48680;BME280;34475;51.658;5.634;2023-03-14T05:32:00;98630;;;9.9;100.0
48680;BME280;34475;51.658;5.634;2023-03-14T05:33:00;98630;;;9.9;100.0
48680;BME280;34475;51.658;5.634;2023-03-14T05:34:00;98630;;;9.9;100.0
48680;BME280;34475;51.658;5.634;2023-03-14T05:35:00;98630;;;9.9;100.0
48680;BME280;34475;51.658;5.634;2023-03-14T05:36:00;98620;;;10.0;100.0
48680;BME280;34475;51.658;5.634;2023-03-14T05:37:00;98620;;;10.0;100.0
48680;BME280;34475;51.658;5.634;2023-03-14T05:38:00;98630;;;10.0;100.0
48680;BME280;34475;51.658;5.634;2023-03-14T05:39:00;98630;;;10.0;100.0
48680;BME280;34475;51.658;5.634;2023-03-14T05:40:00;98620;;;10.1;100.0
48680;BME280;34475;51.658;5.634;2023-03-14T05:41:00;98620;;;10.1;100.0